sensor_id;sensor_type;location;lat;lon;timestamp;P1;durP1;ratioP1;P2;durP2;ratioP2
5452;SDS011;2749;53.576;9.822;2022-08-05T00:00:48;6.87;;;5.47;;
5452;SDS011;2749;53.576;9.822;2022-08-05T00:03:14;7.47;;;6.20;;
5452;SDS011;2749;53.576;9.822;2022-08-05T00:05:40;7.93;;;5.40;;
5452;SDS011;2749;53.576;9.822;2022-08-05T00:08:07;8.47;;;4.80;;
5452;SDS011;2749;53.576;9.822;2022-08-05T00:10:33;7.87;;;5.80;;
5452;SDS011;2749;53.576;9.822;2022-08-05T00:12:59;6.30;;;5.53;;
5452;SDS011;2749;53.576;9.822;2022-08-05T00:15:25;6.47;;;4.67;;
5452;SDS011;2749;53.576;9.822;2022-08-05T00:17:51;8.43;;;5.30;;
5452;SDS011;2749;53.576;9.822;2022-08-05T00:20:16;5.23;;;4.73;;
5452;SDS011;2749;53.576;9.822;2022-08-05T00:22:42;8.13;;;4.57;;
5452;SDS011;2749;53.576;9.822;2022-08-05T00:25:08;4.70;;;4.30;;
5452;SDS011;2749;53.576;9.822;2022-08-05T00:27:34;9.50;;;5.53;;
5452;SDS011;2749;53.576;9.822;2022-08-05T00:30:00;4.20;;;3.23;;
5452;SDS011;2749;53.576;9.822;2022-08-05T00:32:26;7.53;;;3.97;;
5452;SDS011;2749;53.576;9.822;2022-08-05T00:34:52;8.83;;;4.53;;
5452;SDS011;2749;53.576;9.822;2022-08-05T00:37:18;4.90;;;4.13;;
5452;SDS011;2749;53.576;9.822;2022-08-05T00:39:44;4.30;;;3.43;;
5452;SDS011;2749;53.576;9.822;2022-08-05T00:42:10;6.73;;;4.07;;
5452;SDS011;2749;53.576;9.822;2022-08-05T00:44:36;3.90;;;3.50;;
5452;SDS011;2749;53.576;9.822;2022-08-05T00:47:02;3.93;;;3.57;;
5452;SDS011;2749;53.576;9.822;2022-08-05T00:49:28;3.23;;;2.40;;
5452;SDS011;2749;53.576;9.822;2022-08-05T00:51:54;4.40;;;3.57;;
5452;SDS011;2749;53.576;9.822;2022-08-05T00:54:20;7.33;;;5.30;;
5452;SDS011;2749;53.576;9.822;2022-08-05T00:56:45;3.40;;;2.90;;
5452;SDS011;2749;53.576;9.822;2022-08-05T00:59:11;4.37;;;3.40;;
5452;SDS011;2749;53.576;9.822;2022-08-05T01:01:38;3.80;;;2.60;;
5452;SDS011;2749;53.576;9.822;2022-08-05T01:04:04;4.10;;;3.00;;
5452;SDS011;2749;53.576;9.822;2022-08-05T01:06:30;4.20;;;2.50;;
5452;SDS011;2749;53.576;9.822;2022-08-05T01:08:56;7.33;;;2.80;;
5452;SDS011;2749;53.576;9.822;2022-08-05T01:11:26;6.13;;;3.70;;
5452;SDS011;2749;53.576;9.822;2022-08-05T01:18:51;3.30;;;2.80;;
5452;SDS011;2749;53.576;9.822;2022-08-05T01:21:35;4.23;;;3.00;;
5452;SDS011;2749;53.576;9.822;2022-08-05T01:29:35;5.23;;;2.77;;
5452;SDS011;2749;53.576;9.822;2022-08-05T01:32:03;6.40;;;2.50;;
5452;SDS011;2749;53.576;9.822;2022-08-05T01:34:31;4.57;;;3.63;;
5452;SDS011;2749;53.576;9.822;2022-08-05T01:37:07;2.63;;;2.43;;
5452;SDS011;2749;53.576;9.822;2022-08-05T01:39:34;9.40;;;3.40;;
5452;SDS011;2749;53.576;9.822;2022-08-05T01:42:01;3.23;;;2.93;;
5452;SDS011;2749;53.576;9.822;2022-08-05T01:44:27;2.97;;;2.40;;
5452;SDS011;2749;53.576;9.822;2022-08-05T01:46:55;2.50;;;2.00;;
5452;SDS011;2749;53.576;9.822;2022-08-05T01:49:22;4.17;;;2.50;;
5452;SDS011;2749;53.576;9.822;2022-08-05T01:51:51;3.03;;;2.73;;
5452;SDS011;2749;53.576;9.822;2022-08-05T01:54:18;5.50;;;2.87;;
5452;SDS011;2749;53.576;9.822;2022-08-05T01:56:45;4.67;;;2.57;;
5452;SDS011;2749;53.576;9.822;2022-08-05T01:59:12;4.70;;;3.60;;
5452;SDS011;2749;53.576;9.822;2022-08-05T02:01:39;5.20;;;2.60;;
5452;SDS011;2749;53.576;9.822;2022-08-05T02:04:05;5.53;;;2.80;;
5452;SDS011;2749;53.576;9.822;2022-08-05T02:06:32;4.37;;;3.17;;
5452;SDS011;2749;53.576;9.822;2022-08-05T02:08:58;3.80;;;3.37;;
5452;SDS011;2749;53.576;9.822;2022-08-05T02:11:24;4.70;;;3.03;;
5452;SDS011;2749;53.576;9.822;2022-08-05T02:14:02;5.93;;;3.57;;
5452;SDS011;2749;53.576;9.822;2022-08-05T02:16:46;2.70;;;2.50;;
5452;SDS011;2749;53.576;9.822;2022-08-05T02:21:38;4.30;;;2.97;;
5452;SDS011;2749;53.576;9.822;2022-08-05T02:24:07;7.17;;;3.60;;
5452;SDS011;2749;53.576;9.822;2022-08-05T02:26:37;5.03;;;3.30;;
5452;SDS011;2749;53.576;9.822;2022-08-05T02:29:04;6.50;;;3.53;;
5452;SDS011;2749;53.576;9.822;2022-08-05T02:31:31;3.77;;;3.40;;
5452;SDS011;2749;53.576;9.822;2022-08-05T02:33:59;5.10;;;3.30;;
5452;SDS011;2749;53.576;9.822;2022-08-05T02:36:27;6.00;;;3.40;;
5452;SDS011;2749;53.576;9.822;2022-08-05T02:38:54;7.60;;;4.10;;
5452;SDS011;2749;53.576;9.822;2022-08-05T02:41:21;4.23;;;3.60;;
5452;SDS011;2749;53.576;9.822;2022-08-05T02:43:47;6.03;;;3.87;;
5452;SDS011;2749;53.576;9.822;2022-08-05T02:46:14;6.17;;;4.00;;
5452;SDS011;2749;53.576;9.822;2022-08-05T02:48:41;7.90;;;3.67;;
5452;SDS011;2749;53.576;9.822;2022-08-05T02:51:06;4.10;;;3.80;;
5452;SDS011;2749;53.576;9.822;2022-08-05T02:53:33;4.83;;;3.50;;
5452;SDS011;2749;53.576;9.822;2022-08-05T02:55:59;4.60;;;4.17;;
5452;SDS011;2749;53.576;9.822;2022-08-05T02:58:26;4.97;;;4.10;;
5452;SDS011;2749;53.576;9.822;2022-08-05T03:00:54;5.40;;;3.80;;
5452;SDS011;2749;53.576;9.822;2022-08-05T03:03:20;6.53;;;4.13;;
5452;SDS011;2749;53.576;9.822;2022-08-05T03:05:46;4.97;;;3.40;;
5452;SDS011;2749;53.576;9.822;2022-08-05T03:08:13;4.63;;;4.00;;
5452;SDS011;2749;53.576;9.822;2022-08-05T03:10:42;7.53;;;4.70;;
5452;SDS011;2749;53.576;9.822;2022-08-05T03:13:14;4.93;;;3.80;;
5452;SDS011;2749;53.576;9.822;2022-08-05T03:15:43;7.40;;;4.60;;
5452;SDS011;2749;53.576;9.822;2022-08-05T03:18:10;4.27;;;3.50;;
5452;SDS011;2749;53.576;9.822;2022-08-05T03:20:36;3.80;;;3.50;;
5452;SDS011;2749;53.576;9.822;2022-08-05T03:23:03;5.53;;;3.80;;
5452;SDS011;2749;53.576;9.822;2022-08-05T03:25:30;5.33;;;3.80;;
5452;SDS011;2749;53.576;9.822;2022-08-05T03:27:57;6.90;;;4.17;;
5452;SDS011;2749;53.576;9.822;2022-08-05T03:30:23;4.33;;;4.03;;
5452;SDS011;2749;53.576;9.822;2022-08-05T03:32:51;4.57;;;3.60;;
5452;SDS011;2749;53.576;9.822;2022-08-05T03:35:17;8.40;;;3.83;;
5452;SDS011;2749;53.576;9.822;2022-08-05T03:37:43;3.80;;;3.50;;
5452;SDS011;2749;53.576;9.822;2022-08-05T03:40:09;7.97;;;4.20;;
5452;SDS011;2749;53.576;9.822;2022-08-05T03:42:36;4.17;;;3.73;;
5452;SDS011;2749;53.576;9.822;2022-08-05T03:45:04;5.20;;;4.70;;
5452;SDS011;2749;53.576;9.822;2022-08-05T03:47:30;4.50;;;3.93;;
5452;SDS011;2749;53.576;9.822;2022-08-05T03:49:56;4.57;;;3.97;;
5452;SDS011;2749;53.576;9.822;2022-08-05T03:52:24;5.67;;;3.93;;
5452;SDS011;2749;53.576;9.822;2022-08-05T03:54:51;5.00;;;4.33;;
5452;SDS011;2749;53.576;9.822;2022-08-05T03:57:19;9.50;;;4.67;;
5452;SDS011;2749;53.576;9.822;2022-08-05T03:59:50;6.40;;;4.83;;
5452;SDS011;2749;53.576;9.822;2022-08-05T04:02:18;4.40;;;4.00;;
5452;SDS011;2749;53.576;9.822;2022-08-05T04:04:44;7.23;;;4.70;;
5452;SDS011;2749;53.576;9.822;2022-08-05T04:07:10;4.23;;;3.83;;
5452;SDS011;2749;53.576;9.822;2022-08-05T04:09:37;5.23;;;4.10;;
5452;SDS011;2749;53.576;9.822;2022-08-05T04:12:03;7.37;;;4.70;;
5452;SDS011;2749;53.576;9.822;2022-08-05T04:14:29;6.10;;;4.80;;
5452;SDS011;2749;53.576;9.822;2022-08-05T04:16:55;7.17;;;4.43;;
5452;SDS011;2749;53.576;9.822;2022-08-05T04:19:21;4.53;;;3.83;;
5452;SDS011;2749;53.576;9.822;2022-08-05T04:21:47;8.33;;;5.20;;
5452;SDS011;2749;53.576;9.822;2022-08-05T04:24:13;5.27;;;4.60;;
5452;SDS011;2749;53.576;9.822;2022-08-05T04:26:40;7.13;;;5.17;;
5452;SDS011;2749;53.576;9.822;2022-08-05T04:29:05;10.47;;;5.77;;
5452;SDS011;2749;53.576;9.822;2022-08-05T04:31:31;4.90;;;4.50;;
5452;SDS011;2749;53.576;9.822;2022-08-05T04:33:57;11.97;;;5.27;;
5452;SDS011;2749;53.576;9.822;2022-08-05T04:36:23;7.10;;;5.57;;
5452;SDS011;2749;53.576;9.822;2022-08-05T04:38:49;8.87;;;5.80;;
5452;SDS011;2749;53.576;9.822;2022-08-05T04:41:16;7.60;;;4.77;;
5452;SDS011;2749;53.576;9.822;2022-08-05T04:43:42;8.23;;;4.30;;
5452;SDS011;2749;53.576;9.822;2022-08-05T04:46:08;5.17;;;4.37;;
5452;SDS011;2749;53.576;9.822;2022-08-05T04:48:34;7.00;;;4.70;;
5452;SDS011;2749;53.576;9.822;2022-08-05T04:51:00;5.60;;;5.10;;
5452;SDS011;2749;53.576;9.822;2022-08-05T04:53:26;4.83;;;4.43;;
5452;SDS011;2749;53.576;9.822;2022-08-05T04:55:53;5.97;;;5.47;;
5452;SDS011;2749;53.576;9.822;2022-08-05T04:58:19;8.63;;;5.30;;
5452;SDS011;2749;53.576;9.822;2022-08-05T05:00:45;6.37;;;5.73;;
5452;SDS011;2749;53.576;9.822;2022-08-05T05:03:10;6.40;;;5.80;;
5452;SDS011;2749;53.576;9.822;2022-08-05T05:05:36;7.63;;;5.27;;
5452;SDS011;2749;53.576;9.822;2022-08-05T05:08:07;7.40;;;5.90;;
5452;SDS011;2749;53.576;9.822;2022-08-05T05:10:37;7.10;;;5.10;;
5452;SDS011;2749;53.576;9.822;2022-08-05T05:13:05;5.70;;;4.70;;
5452;SDS011;2749;53.576;9.822;2022-08-05T05:15:31;5.90;;;5.30;;
5452;SDS011;2749;53.576;9.822;2022-08-05T05:17:57;4.90;;;4.40;;
5452;SDS011;2749;53.576;9.822;2022-08-05T05:20:23;6.03;;;5.40;;
5452;SDS011;2749;53.576;9.822;2022-08-05T05:22:49;6.73;;;5.63;;
5452;SDS011;2749;53.576;9.822;2022-08-05T05:25:15;7.00;;;6.30;;
5452;SDS011;2749;53.576;9.822;2022-08-05T05:27:41;7.27;;;6.00;;
5452;SDS011;2749;53.576;9.822;2022-08-05T05:30:07;10.27;;;5.93;;
5452;SDS011;2749;53.576;9.822;2022-08-05T05:32:33;5.90;;;5.40;;
5452;SDS011;2749;53.576;9.822;2022-08-05T05:34:59;5.20;;;4.70;;
5452;SDS011;2749;53.576;9.822;2022-08-05T05:37:25;5.70;;;5.13;;
5452;SDS011;2749;53.576;9.822;2022-08-05T05:39:51;5.30;;;4.80;;
5452;SDS011;2749;53.576;9.822;2022-08-05T05:42:17;6.90;;;5.50;;
5452;SDS011;2749;53.576;9.822;2022-08-05T05:44:43;11.53;;;5.80;;
5452;SDS011;2749;53.576;9.822;2022-08-05T05:47:09;5.40;;;4.90;;
5452;SDS011;2749;53.576;9.822;2022-08-05T05:49:35;6.00;;;5.40;;
5452;SDS011;2749;53.576;9.822;2022-08-05T05:52:01;6.00;;;4.83;;
5452;SDS011;2749;53.576;9.822;2022-08-05T05:54:27;6.00;;;5.47;;
5452;SDS011;2749;53.576;9.822;2022-08-05T05:56:53;6.87;;;6.10;;
5452;SDS011;2749;53.576;9.822;2022-08-05T05:59:19;5.80;;;5.30;;
5452;SDS011;2749;53.576;9.822;2022-08-05T06:01:45;9.50;;;5.57;;
5452;SDS011;2749;53.576;9.822;2022-08-05T06:04:11;6.17;;;5.57;;
5452;SDS011;2749;53.576;9.822;2022-08-05T06:06:41;7.37;;;6.17;;
5452;SDS011;2749;53.576;9.822;2022-08-05T06:09:07;6.93;;;6.10;;
5452;SDS011;2749;53.576;9.822;2022-08-05T06:11:33;4.73;;;4.33;;
5452;SDS011;2749;53.576;9.822;2022-08-05T06:14:00;6.87;;;5.70;;
5452;SDS011;2749;53.576;9.822;2022-08-05T06:16:26;6.57;;;5.87;;
5452;SDS011;2749;53.576;9.822;2022-08-05T06:18:52;5.47;;;4.53;;
5452;SDS011;2749;53.576;9.822;2022-08-05T06:21:18;5.27;;;4.30;;
5452;SDS011;2749;53.576;9.822;2022-08-05T06:23:44;5.47;;;4.67;;
5452;SDS011;2749;53.576;9.822;2022-08-05T06:26:10;5.57;;;3.97;;
5452;SDS011;2749;53.576;9.822;2022-08-05T06:28:36;8.03;;;4.47;;
5452;SDS011;2749;53.576;9.822;2022-08-05T06:31:02;5.23;;;4.10;;
5452;SDS011;2749;53.576;9.822;2022-08-05T06:33:28;5.37;;;4.87;;
5452;SDS011;2749;53.576;9.822;2022-08-05T06:35:54;6.03;;;3.90;;
5452;SDS011;2749;53.576;9.822;2022-08-05T06:38:20;5.13;;;4.33;;
5452;SDS011;2749;53.576;9.822;2022-08-05T06:40:46;7.57;;;3.60;;
5452;SDS011;2749;53.576;9.822;2022-08-05T06:43:12;4.10;;;3.40;;
5452;SDS011;2749;53.576;9.822;2022-08-05T06:45:38;4.67;;;3.67;;
5452;SDS011;2749;53.576;9.822;2022-08-05T06:48:04;5.70;;;4.23;;
5452;SDS011;2749;53.576;9.822;2022-08-05T06:50:30;6.57;;;3.83;;
5452;SDS011;2749;53.576;9.822;2022-08-05T06:52:55;5.30;;;3.67;;
5452;SDS011;2749;53.576;9.822;2022-08-05T06:55:21;7.20;;;3.43;;
5452;SDS011;2749;53.576;9.822;2022-08-05T06:57:47;4.43;;;3.00;;
5452;SDS011;2749;53.576;9.822;2022-08-05T07:00:13;5.30;;;3.20;;
5452;SDS011;2749;53.576;9.822;2022-08-05T07:02:45;4.13;;;3.07;;
5452;SDS011;2749;53.576;9.822;2022-08-05T07:05:11;4.47;;;2.83;;
5452;SDS011;2749;53.576;9.822;2022-08-05T07:07:38;4.63;;;2.70;;
5452;SDS011;2749;53.576;9.822;2022-08-05T07:10:04;3.30;;;2.60;;
5452;SDS011;2749;53.576;9.822;2022-08-05T07:12:30;2.50;;;2.30;;
5452;SDS011;2749;53.576;9.822;2022-08-05T07:15:15;7.30;;;3.20;;
5452;SDS011;2749;53.576;9.822;2022-08-05T07:17:59;2.63;;;2.43;;
5452;SDS011;2749;53.576;9.822;2022-08-05T07:20:25;4.17;;;2.47;;
5452;SDS011;2749;53.576;9.822;2022-08-05T07:22:51;2.53;;;2.23;;
5452;SDS011;2749;53.576;9.822;2022-08-05T07:25:17;4.43;;;2.90;;
5452;SDS011;2749;53.576;9.822;2022-08-05T07:27:43;5.23;;;3.23;;
5452;SDS011;2749;53.576;9.822;2022-08-05T07:30:09;5.17;;;2.60;;
5452;SDS011;2749;53.576;9.822;2022-08-05T07:32:36;9.80;;;2.80;;
5452;SDS011;2749;53.576;9.822;2022-08-05T07:35:08;3.03;;;2.73;;
5452;SDS011;2749;53.576;9.822;2022-08-05T07:37:34;9.03;;;3.33;;
5452;SDS011;2749;53.576;9.822;2022-08-05T07:40:00;4.23;;;2.80;;
5452;SDS011;2749;53.576;9.822;2022-08-05T07:42:26;3.43;;;3.13;;
5452;SDS011;2749;53.576;9.822;2022-08-05T07:44:54;5.60;;;3.17;;
5452;SDS011;2749;53.576;9.822;2022-08-05T07:47:20;3.00;;;2.70;;
5452;SDS011;2749;53.576;9.822;2022-08-05T07:49:46;4.17;;;3.87;;
5452;SDS011;2749;53.576;9.822;2022-08-05T07:52:12;2.70;;;2.40;;
5452;SDS011;2749;53.576;9.822;2022-08-05T07:54:38;4.47;;;2.70;;
5452;SDS011;2749;53.576;9.822;2022-08-05T07:57:04;2.47;;;2.27;;
5452;SDS011;2749;53.576;9.822;2022-08-05T07:59:30;3.60;;;2.90;;
5452;SDS011;2749;53.576;9.822;2022-08-05T08:01:56;7.00;;;4.30;;
5452;SDS011;2749;53.576;9.822;2022-08-05T08:04:22;5.40;;;2.90;;
5452;SDS011;2749;53.576;9.822;2022-08-05T08:06:48;2.93;;;2.60;;
5452;SDS011;2749;53.576;9.822;2022-08-05T08:09:14;3.00;;;2.60;;
5452;SDS011;2749;53.576;9.822;2022-08-05T08:11:40;3.40;;;3.10;;
5452;SDS011;2749;53.576;9.822;2022-08-05T08:14:06;3.80;;;2.90;;
5452;SDS011;2749;53.576;9.822;2022-08-05T08:16:32;4.70;;;3.13;;
5452;SDS011;2749;53.576;9.822;2022-08-05T08:18:58;3.30;;;3.00;;
5452;SDS011;2749;53.576;9.822;2022-08-05T08:21:24;3.03;;;2.77;;
5452;SDS011;2749;53.576;9.822;2022-08-05T08:23:50;3.13;;;2.93;;
5452;SDS011;2749;53.576;9.822;2022-08-05T08:26:15;6.97;;;3.07;;
5452;SDS011;2749;53.576;9.822;2022-08-05T08:28:41;5.80;;;3.50;;
5452;SDS011;2749;53.576;9.822;2022-08-05T08:31:07;3.03;;;2.73;;
5452;SDS011;2749;53.576;9.822;2022-08-05T08:33:34;3.73;;;2.60;;
5452;SDS011;2749;53.576;9.822;2022-08-05T08:36:00;2.70;;;2.50;;
5452;SDS011;2749;53.576;9.822;2022-08-05T08:38:26;4.53;;;3.13;;
5452;SDS011;2749;53.576;9.822;2022-08-05T08:40:52;4.63;;;3.50;;
5452;SDS011;2749;53.576;9.822;2022-08-05T08:43:18;4.03;;;3.20;;
5452;SDS011;2749;53.576;9.822;2022-08-05T08:45:45;4.80;;;3.33;;
5452;SDS011;2749;53.576;9.822;2022-08-05T08:48:14;3.10;;;2.90;;
5452;SDS011;2749;53.576;9.822;2022-08-05T08:50:42;3.77;;;3.50;;
5452;SDS011;2749;53.576;9.822;2022-08-05T08:53:09;4.77;;;3.20;;
5452;SDS011;2749;53.576;9.822;2022-08-05T08:55:35;4.10;;;2.63;;
5452;SDS011;2749;53.576;9.822;2022-08-05T08:58:01;3.00;;;2.80;;
5452;SDS011;2749;53.576;9.822;2022-08-05T09:00:28;3.93;;;3.10;;
5452;SDS011;2749;53.576;9.822;2022-08-05T09:02:54;3.73;;;3.30;;
5452;SDS011;2749;53.576;9.822;2022-08-05T09:05:21;3.83;;;3.07;;
5452;SDS011;2749;53.576;9.822;2022-08-05T09:07:47;3.67;;;2.83;;
5452;SDS011;2749;53.576;9.822;2022-08-05T09:10:13;4.03;;;2.70;;
5452;SDS011;2749;53.576;9.822;2022-08-05T09:12:39;4.33;;;3.77;;
5452;SDS011;2749;53.576;9.822;2022-08-05T09:15:05;3.83;;;3.53;;
5452;SDS011;2749;53.576;9.822;2022-08-05T09:17:31;7.10;;;3.47;;
5452;SDS011;2749;53.576;9.822;2022-08-05T09:19:58;4.70;;;3.20;;
5452;SDS011;2749;53.576;9.822;2022-08-05T09:22:24;5.77;;;4.33;;
5452;SDS011;2749;53.576;9.822;2022-08-05T09:24:56;4.23;;;3.70;;
5452;SDS011;2749;53.576;9.822;2022-08-05T09:27:33;3.50;;;3.23;;
5452;SDS011;2749;53.576;9.822;2022-08-05T09:29:59;4.43;;;3.50;;
5452;SDS011;2749;53.576;9.822;2022-08-05T09:32:38;3.90;;;3.53;;
5452;SDS011;2749;53.576;9.822;2022-08-05T09:35:11;3.23;;;2.73;;
5452;SDS011;2749;53.576;9.822;2022-08-05T09:37:37;5.93;;;3.27;;
5452;SDS011;2749;53.576;9.822;2022-08-05T09:40:05;4.40;;;3.13;;
5452;SDS011;2749;53.576;9.822;2022-08-05T09:42:38;4.03;;;3.67;;
5452;SDS011;2749;53.576;9.822;2022-08-05T09:45:07;4.33;;;3.30;;
5452;SDS011;2749;53.576;9.822;2022-08-05T09:47:34;3.80;;;3.50;;
5452;SDS011;2749;53.576;9.822;2022-08-05T09:50:05;4.57;;;3.97;;
5452;SDS011;2749;53.576;9.822;2022-08-05T09:52:32;5.30;;;3.83;;
5452;SDS011;2749;53.576;9.822;2022-08-05T09:54:59;4.20;;;3.17;;
5452;SDS011;2749;53.576;9.822;2022-08-05T09:57:29;3.10;;;2.80;;
5452;SDS011;2749;53.576;9.822;2022-08-05T09:59:59;6.83;;;3.30;;
5452;SDS011;2749;53.576;9.822;2022-08-05T10:02:44;4.77;;;3.37;;
5452;SDS011;2749;53.576;9.822;2022-08-05T10:10:08;4.33;;;2.97;;
5452;SDS011;2749;53.576;9.822;2022-08-05T10:12:44;3.67;;;3.30;;
5452;SDS011;2749;53.576;9.822;2022-08-05T10:18:08;4.90;;;2.70;;
5452;SDS011;2749;53.576;9.822;2022-08-05T10:20:33;5.10;;;2.90;;
5452;SDS011;2749;53.576;9.822;2022-08-05T10:23:00;3.33;;;2.90;;
5452;SDS011;2749;53.576;9.822;2022-08-05T10:25:26;7.30;;;3.20;;
5452;SDS011;2749;53.576;9.822;2022-08-05T10:27:52;7.40;;;2.87;;
5452;SDS011;2749;53.576;9.822;2022-08-05T10:30:19;3.27;;;2.97;;
5452;SDS011;2749;53.576;9.822;2022-08-05T10:32:45;3.93;;;2.90;;
5452;SDS011;2749;53.576;9.822;2022-08-05T10:35:11;6.27;;;3.43;;
5452;SDS011;2749;53.576;9.822;2022-08-05T10:37:37;3.87;;;3.23;;
5452;SDS011;2749;53.576;9.822;2022-08-05T10:40:04;4.73;;;3.70;;
5452;SDS011;2749;53.576;9.822;2022-08-05T10:42:32;4.70;;;3.87;;
5452;SDS011;2749;53.576;9.822;2022-08-05T10:45:05;4.30;;;3.17;;
5452;SDS011;2749;53.576;9.822;2022-08-05T10:47:32;5.37;;;3.10;;
5452;SDS011;2749;53.576;9.822;2022-08-05T10:50:08;4.40;;;3.40;;
5452;SDS011;2749;53.576;9.822;2022-08-05T10:55:08;4.23;;;3.20;;
5452;SDS011;2749;53.576;9.822;2022-08-05T10:57:34;6.60;;;3.93;;
5452;SDS011;2749;53.576;9.822;2022-08-05T11:00:07;6.57;;;3.40;;
5452;SDS011;2749;53.576;9.822;2022-08-05T11:02:35;3.77;;;3.33;;
5452;SDS011;2749;53.576;9.822;2022-08-05T11:05:05;6.20;;;3.73;;
5452;SDS011;2749;53.576;9.822;2022-08-05T11:07:31;4.40;;;3.57;;
5452;SDS011;2749;53.576;9.822;2022-08-05T11:09:58;6.33;;;3.73;;
5452;SDS011;2749;53.576;9.822;2022-08-05T11:15:06;5.67;;;5.00;;
5452;SDS011;2749;53.576;9.822;2022-08-05T11:17:33;4.10;;;3.70;;
5452;SDS011;2749;53.576;9.822;2022-08-05T11:20:01;3.67;;;3.23;;
5452;SDS011;2749;53.576;9.822;2022-08-05T11:22:44;6.10;;;3.90;;
5452;SDS011;2749;53.576;9.822;2022-08-05T11:33:37;8.33;;;3.00;;
5452;SDS011;2749;53.576;9.822;2022-08-05T11:41:20;3.93;;;3.53;;
5452;SDS011;2749;53.576;9.822;2022-08-05T11:43:54;6.03;;;3.77;;
5452;SDS011;2749;53.576;9.822;2022-08-05T11:46:27;5.00;;;4.37;;
5452;SDS011;2749;53.576;9.822;2022-08-05T11:48:53;4.20;;;3.70;;
5452;SDS011;2749;53.576;9.822;2022-08-05T11:51:19;5.17;;;3.17;;
5452;SDS011;2749;53.576;9.822;2022-08-05T11:53:45;3.33;;;2.50;;
5452;SDS011;2749;53.576;9.822;2022-08-05T11:56:12;3.20;;;2.60;;
5452;SDS011;2749;53.576;9.822;2022-08-05T11:58:39;2.60;;;2.03;;
5452;SDS011;2749;53.576;9.822;2022-08-05T12:01:06;2.60;;;2.40;;
5452;SDS011;2749;53.576;9.822;2022-08-05T12:03:40;3.80;;;2.63;;
5452;SDS011;2749;53.576;9.822;2022-08-05T12:06:07;5.47;;;3.03;;
5452;SDS011;2749;53.576;9.822;2022-08-05T12:08:38;2.77;;;2.47;;
5452;SDS011;2749;53.576;9.822;2022-08-05T12:11:04;4.90;;;3.00;;
5452;SDS011;2749;53.576;9.822;2022-08-05T12:13:32;2.50;;;2.17;;
5452;SDS011;2749;53.576;9.822;2022-08-05T12:15:58;2.87;;;2.47;;
5452;SDS011;2749;53.576;9.822;2022-08-05T12:18:32;4.00;;;1.97;;
5452;SDS011;2749;53.576;9.822;2022-08-05T12:24:06;2.53;;;2.33;;
5452;SDS011;2749;53.576;9.822;2022-08-05T12:26:33;3.47;;;2.13;;
5452;SDS011;2749;53.576;9.822;2022-08-05T12:28:59;4.73;;;2.70;;
5452;SDS011;2749;53.576;9.822;2022-08-05T12:31:25;2.90;;;2.67;;
5452;SDS011;2749;53.576;9.822;2022-08-05T12:33:52;2.00;;;1.90;;
5452;SDS011;2749;53.576;9.822;2022-08-05T12:36:19;2.87;;;1.97;;
5452;SDS011;2749;53.576;9.822;2022-08-05T12:38:45;4.03;;;2.13;;
5452;SDS011;2749;53.576;9.822;2022-08-05T12:41:12;2.03;;;1.83;;
5452;SDS011;2749;53.576;9.822;2022-08-05T12:43:47;3.83;;;2.80;;
5452;SDS011;2749;53.576;9.822;2022-08-05T12:46:20;4.00;;;2.50;;
5452;SDS011;2749;53.576;9.822;2022-08-05T12:48:54;2.23;;;1.90;;
5452;SDS011;2749;53.576;9.822;2022-08-05T12:51:20;4.13;;;2.50;;
5452;SDS011;2749;53.576;9.822;2022-08-05T12:53:46;3.63;;;2.60;;
5452;SDS011;2749;53.576;9.822;2022-08-05T12:56:21;5.50;;;2.83;;
5452;SDS011;2749;53.576;9.822;2022-08-05T13:01:32;2.80;;;2.27;;
5452;SDS011;2749;53.576;9.822;2022-08-05T13:04:01;1.90;;;1.70;;
5452;SDS011;2749;53.576;9.822;2022-08-05T13:06:27;3.57;;;1.60;;
5452;SDS011;2749;53.576;9.822;2022-08-05T13:08:53;2.13;;;1.10;;
5452;SDS011;2749;53.576;9.822;2022-08-05T13:11:20;5.20;;;1.63;;
5452;SDS011;2749;53.576;9.822;2022-08-05T13:13:48;3.50;;;1.20;;
5452;SDS011;2749;53.576;9.822;2022-08-05T13:16:14;1.10;;;1.00;;
5452;SDS011;2749;53.576;9.822;2022-08-05T13:18:50;1.77;;;0.93;;
5452;SDS011;2749;53.576;9.822;2022-08-05T13:21:16;1.67;;;1.20;;
5452;SDS011;2749;53.576;9.822;2022-08-05T13:23:42;2.23;;;1.30;;
5452;SDS011;2749;53.576;9.822;2022-08-05T13:26:08;2.23;;;1.37;;
5452;SDS011;2749;53.576;9.822;2022-08-05T13:28:34;3.53;;;1.40;;
5452;SDS011;2749;53.576;9.822;2022-08-05T13:31:00;3.03;;;1.43;;
5452;SDS011;2749;53.576;9.822;2022-08-05T13:33:26;1.33;;;1.23;;
5452;SDS011;2749;53.576;9.822;2022-08-05T13:35:52;1.80;;;1.23;;
5452;SDS011;2749;53.576;9.822;2022-08-05T13:38:19;2.07;;;1.70;;
5452;SDS011;2749;53.576;9.822;2022-08-05T13:40:45;2.30;;;2.10;;
5452;SDS011;2749;53.576;9.822;2022-08-05T13:43:11;1.63;;;1.43;;
5452;SDS011;2749;53.576;9.822;2022-08-05T13:45:37;3.63;;;1.93;;
5452;SDS011;2749;53.576;9.822;2022-08-05T13:48:03;3.47;;;1.37;;
5452;SDS011;2749;53.576;9.822;2022-08-05T13:50:29;6.43;;;1.90;;
5452;SDS011;2749;53.576;9.822;2022-08-05T13:52:55;2.00;;;1.80;;
5452;SDS011;2749;53.576;9.822;2022-08-05T13:55:21;4.30;;;1.77;;
5452;SDS011;2749;53.576;9.822;2022-08-05T13:57:47;1.97;;;1.40;;
5452;SDS011;2749;53.576;9.822;2022-08-05T14:00:13;1.90;;;1.80;;
5452;SDS011;2749;53.576;9.822;2022-08-05T14:02:39;4.50;;;2.13;;
5452;SDS011;2749;53.576;9.822;2022-08-05T14:05:05;2.27;;;1.90;;
5452;SDS011;2749;53.576;9.822;2022-08-05T14:07:35;4.07;;;2.20;;
5452;SDS011;2749;53.576;9.822;2022-08-05T14:10:03;4.47;;;2.10;;
5452;SDS011;2749;53.576;9.822;2022-08-05T14:12:29;3.60;;;2.03;;
5452;SDS011;2749;53.576;9.822;2022-08-05T14:14:55;4.47;;;2.33;;
5452;SDS011;2749;53.576;9.822;2022-08-05T14:17:21;4.93;;;2.40;;
5452;SDS011;2749;53.576;9.822;2022-08-05T14:19:50;3.67;;;2.80;;
5452;SDS011;2749;53.576;9.822;2022-08-05T14:22:16;4.70;;;2.50;;
5452;SDS011;2749;53.576;9.822;2022-08-05T14:24:42;2.30;;;2.10;;
5452;SDS011;2749;53.576;9.822;2022-08-05T14:27:08;7.80;;;2.97;;
5452;SDS011;2749;53.576;9.822;2022-08-05T14:29:34;2.20;;;2.10;;
5452;SDS011;2749;53.576;9.822;2022-08-05T14:32:00;3.10;;;2.67;;
5452;SDS011;2749;53.576;9.822;2022-08-05T14:34:26;5.10;;;2.37;;
5452;SDS011;2749;53.576;9.822;2022-08-05T14:36:51;4.00;;;2.50;;
5452;SDS011;2749;53.576;9.822;2022-08-05T14:39:17;2.33;;;2.13;;
5452;SDS011;2749;53.576;9.822;2022-08-05T14:41:43;4.13;;;2.83;;
5452;SDS011;2749;53.576;9.822;2022-08-05T14:44:09;2.80;;;2.60;;
5452;SDS011;2749;53.576;9.822;2022-08-05T14:46:35;4.33;;;3.20;;
5452;SDS011;2749;53.576;9.822;2022-08-05T14:49:02;2.87;;;2.60;;
5452;SDS011;2749;53.576;9.822;2022-08-05T14:51:28;3.77;;;2.93;;
5452;SDS011;2749;53.576;9.822;2022-08-05T14:53:54;2.67;;;2.00;;
5452;SDS011;2749;53.576;9.822;2022-08-05T14:56:20;5.53;;;3.00;;
5452;SDS011;2749;53.576;9.822;2022-08-05T14:58:46;4.03;;;2.50;;
5452;SDS011;2749;53.576;9.822;2022-08-05T15:01:12;5.43;;;2.23;;
5452;SDS011;2749;53.576;9.822;2022-08-05T15:03:38;3.30;;;3.10;;
5452;SDS011;2749;53.576;9.822;2022-08-05T15:06:04;4.10;;;3.20;;
5452;SDS011;2749;53.576;9.822;2022-08-05T15:08:30;6.43;;;2.80;;
5452;SDS011;2749;53.576;9.822;2022-08-05T15:10:56;4.20;;;2.90;;
5452;SDS011;2749;53.576;9.822;2022-08-05T15:13:22;6.33;;;3.30;;
5452;SDS011;2749;53.576;9.822;2022-08-05T15:15:48;2.73;;;2.53;;
5452;SDS011;2749;53.576;9.822;2022-08-05T15:18:14;2.90;;;2.60;;
5452;SDS011;2749;53.576;9.822;2022-08-05T15:20:40;4.90;;;3.50;;
5452;SDS011;2749;53.576;9.822;2022-08-05T15:23:06;4.97;;;3.30;;
5452;SDS011;2749;53.576;9.822;2022-08-05T15:25:33;3.23;;;2.47;;
5452;SDS011;2749;53.576;9.822;2022-08-05T15:27:59;2.37;;;1.70;;
5452;SDS011;2749;53.576;9.822;2022-08-05T15:30:25;2.80;;;1.80;;
5452;SDS011;2749;53.576;9.822;2022-08-05T15:32:52;6.37;;;1.37;;
5452;SDS011;2749;53.576;9.822;2022-08-05T15:35:19;4.97;;;1.10;;
5452;SDS011;2749;53.576;9.822;2022-08-05T15:37:45;1.83;;;1.17;;
5452;SDS011;2749;53.576;9.822;2022-08-05T15:40:11;2.10;;;1.80;;
5452;SDS011;2749;53.576;9.822;2022-08-05T15:42:37;1.50;;;1.30;;
5452;SDS011;2749;53.576;9.822;2022-08-05T15:45:03;4.67;;;1.40;;
5452;SDS011;2749;53.576;9.822;2022-08-05T15:47:29;1.50;;;0.90;;
5452;SDS011;2749;53.576;9.822;2022-08-05T15:49:56;1.87;;;1.23;;
5452;SDS011;2749;53.576;9.822;2022-08-05T15:52:22;1.37;;;1.27;;
5452;SDS011;2749;53.576;9.822;2022-08-05T15:54:50;2.90;;;1.17;;
5452;SDS011;2749;53.576;9.822;2022-08-05T15:57:16;2.37;;;1.57;;
5452;SDS011;2749;53.576;9.822;2022-08-05T15:59:42;3.00;;;1.33;;